createdAt,value
2022-07-25T00:00:38.888Z,56.40
2022-07-25T00:01:38.783Z,55.27
2022-07-25T00:02:39.167Z,55.11
2022-07-25T00:03:39.952Z,56.72
2022-07-25T00:04:38.765Z,57.36
2022-07-25T00:05:38.754Z,56.24
2022-07-25T00:06:38.690Z,51.56
2022-07-25T00:07:38.542Z,55.59
2022-07-25T00:08:38.623Z,57.20
2022-07-25T00:09:38.830Z,46.08
2022-07-25T00:10:38.595Z,54.46
2022-07-25T00:11:38.559Z,60.42
2022-07-25T00:12:38.637Z,53.33
2022-07-25T00:13:38.423Z,54.14
2022-07-25T00:14:38.542Z,47.37
2022-07-25T00:15:38.554Z,50.76
2022-07-25T00:16:38.730Z,54.46
2022-07-25T00:17:38.680Z,54.30
2022-07-25T00:18:38.671Z,51.24
2022-07-25T00:19:38.484Z,50.60
2022-07-25T00:20:38.532Z,56.88
2022-07-25T00:21:38.500Z,53.33
2022-07-25T00:22:38.428Z,51.72
2022-07-25T00:23:38.348Z,55.59
2022-07-25T00:24:38.368Z,54.30
2022-07-25T00:25:38.387Z,47.53
2022-07-25T00:26:40.460Z,56.72
2022-07-25T00:27:38.444Z,58.33
2022-07-25T00:28:38.585Z,53.66
2022-07-25T00:29:38.420Z,53.17
2022-07-25T00:30:38.838Z,56.40
2022-07-25T00:31:38.569Z,56.24
2022-07-25T00:32:38.286Z,56.24
2022-07-25T00:33:38.428Z,54.95
2022-07-25T00:34:38.244Z,56.72
2022-07-25T00:35:38.321Z,56.24
2022-07-25T00:36:38.306Z,53.66
2022-07-25T00:37:38.491Z,54.62
2022-07-25T00:38:38.280Z,56.40
2022-07-25T00:39:38.950Z,57.20
2022-07-25T00:40:38.304Z,49.15
2022-07-25T00:41:38.234Z,53.17
2022-07-25T00:42:38.234Z,55.27
2022-07-25T00:43:38.186Z,59.46
2022-07-25T00:44:38.120Z,57.85
2022-07-25T00:45:38.171Z,54.46
2022-07-25T00:46:38.270Z,54.79
2022-07-25T00:47:38.312Z,59.46
2022-07-25T00:48:38.322Z,54.95
2022-07-25T00:49:38.140Z,55.43
2022-07-25T00:50:38.099Z,55.75
2022-07-25T00:51:38.091Z,56.72
2022-07-25T00:52:38.089Z,53.66
2022-07-25T00:53:37.992Z,50.43
2022-07-25T00:54:38.141Z,57.69
2022-07-25T00:55:38.306Z,57.20
2022-07-25T00:56:37.979Z,55.27
2022-07-25T00:57:37.987Z,57.85
2022-07-25T00:58:38.091Z,56.56
2022-07-25T00:59:38.015Z,54.95
2022-07-25T01:00:38.967Z,58.81
2022-07-25T01:01:38.133Z,56.07
2022-07-25T01:02:37.930Z,57.04
2022-07-25T01:03:37.973Z,53.50
2022-07-25T01:04:37.944Z,53.98
2022-07-25T01:05:37.952Z,53.66
2022-07-25T01:06:38.012Z,55.59
2022-07-25T01:07:38.203Z,57.85
2022-07-25T01:08:38.284Z,58.97
2022-07-25T02:58:31.258Z,60.75
2022-07-25T02:59:32.393Z,60.91
2022-07-25T03:00:30.948Z,59.30
2022-07-25T03:01:30.989Z,56.72
2022-07-25T03:02:30.901Z,60.26
2022-07-25T03:03:30.929Z,60.42
2022-07-25T03:04:30.954Z,58.17
2022-07-25T03:05:30.866Z,58.33
2022-07-25T03:06:30.919Z,62.04
2022-07-25T03:07:30.811Z,60.26
2022-07-25T03:08:30.829Z,58.49
2022-07-25T03:09:30.832Z,61.71
2022-07-25T03:10:30.791Z,62.20
2022-07-25T03:11:30.757Z,61.55
2022-07-25T03:12:30.823Z,60.42
2022-07-25T03:13:31.907Z,62.84
2022-07-25T03:14:31.925Z,63.16
2022-07-25T03:15:31.987Z,59.94
2022-07-25T03:16:31.969Z,63.65
2022-07-25T03:17:31.862Z,63.16
2022-07-25T03:18:31.846Z,62.04
2022-07-25T03:19:31.897Z,62.84
2022-07-25T03:20:31.845Z,60.75
2022-07-25T03:21:31.938Z,59.94
2022-07-25T03:22:31.860Z,58.17
2022-07-25T03:23:31.840Z,63.65
2022-07-25T03:24:31.776Z,61.55
2022-07-25T03:25:31.841Z,61.71
2022-07-25T03:26:31.824Z,63.81
2022-07-25T03:27:31.800Z,62.04
2022-07-25T03:28:31.824Z,64.61
2022-07-25T03:29:31.821Z,61.39
2022-07-25T03:30:32.015Z,61.07
2022-07-25T03:31:31.971Z,60.42
2022-07-25T03:32:31.872Z,61.39
2022-07-25T03:33:31.783Z,62.36
2022-07-25T03:34:31.734Z,63.33
2022-07-25T03:35:31.918Z,64.45
2022-07-25T03:36:31.801Z,62.68
2022-07-25T03:37:31.788Z,62.68
2022-07-25T03:38:31.758Z,60.26
2022-07-25T03:39:31.822Z,58.49
2022-07-25T03:40:31.733Z,59.78
2022-07-25T03:41:31.708Z,62.52
2022-07-25T03:42:35.207Z,60.26
2022-07-25T03:43:31.646Z,60.26
2022-07-25T03:44:31.668Z,60.59
2022-07-25T03:45:31.691Z,62.84
2022-07-25T03:46:31.778Z,63.49
2022-07-25T03:47:31.640Z,62.20
2022-07-25T03:48:31.713Z,58.97
2022-07-25T03:49:31.592Z,59.94
2022-07-25T03:50:31.685Z,62.04
2022-07-25T03:51:31.603Z,60.26
2022-07-25T03:52:31.632Z,59.62
2022-07-25T03:53:31.568Z,60.10
2022-07-25T03:54:31.641Z,60.91
2022-07-25T03:55:31.645Z,57.20
2022-07-25T03:56:31.534Z,62.68
2022-07-25T03:57:31.616Z,60.75
2022-07-25T03:58:31.620Z,59.78
2022-07-25T03:59:31.676Z,61.55
2022-07-25T04:00:31.445Z,61.39
2022-07-25T04:01:31.573Z,61.71
2022-07-25T04:02:31.729Z,60.42
2022-07-25T04:03:31.433Z,61.07
2022-07-25T04:04:31.436Z,60.91
2022-07-25T04:05:31.413Z,62.04
2022-07-25T04:06:31.469Z,60.42
2022-07-25T04:07:31.413Z,62.68
2022-07-25T04:08:31.380Z,62.20
2022-07-25T04:09:33.652Z,61.07
2022-07-25T04:10:31.409Z,63.16
2022-07-25T04:11:31.268Z,62.04
2022-07-25T04:12:31.386Z,63.97
2022-07-25T04:13:31.269Z,64.94
2022-07-25T04:14:31.371Z,61.71
2022-07-25T04:15:31.325Z,63.97
2022-07-25T04:16:31.346Z,62.20
2022-07-25T04:17:31.297Z,63.16
2022-07-25T04:18:31.233Z,62.68
2022-07-25T04:19:31.270Z,63.16
2022-07-25T04:20:31.271Z,61.23
2022-07-25T04:21:31.151Z,59.94
2022-07-25T04:22:31.240Z,63.65
2022-07-25T04:23:31.742Z,62.20
2022-07-25T04:24:31.139Z,61.87
2022-07-25T04:25:31.157Z,59.78
2022-07-25T04:26:31.185Z,62.36
2022-07-25T04:27:31.182Z,60.59
2022-07-25T04:28:31.181Z,60.42
2022-07-25T04:29:31.168Z,63.49
2022-07-25T04:30:31.098Z,60.59
2022-07-25T04:31:31.256Z,62.20
2022-07-25T04:32:31.151Z,61.55
2022-07-25T04:33:31.127Z,63.16
2022-07-25T04:34:31.066Z,62.52
2022-07-25T04:35:31.090Z,62.04
2022-07-25T04:36:31.033Z,61.39
2022-07-25T04:37:31.081Z,63.16
2022-07-25T04:38:30.990Z,63.49
2022-07-25T04:39:31.040Z,63.00
2022-07-25T04:40:32.387Z,63.00
2022-07-25T04:41:30.962Z,64.94
2022-07-25T04:42:31.055Z,63.16
2022-07-25T04:43:31.030Z,63.65
2022-07-25T04:44:30.969Z,63.16
2022-07-25T04:45:30.926Z,64.78
2022-07-25T04:46:30.886Z,66.06
2022-07-25T04:47:30.910Z,62.36
2022-07-25T04:48:31.035Z,64.13
2022-07-25T04:49:31.150Z,65.58
2022-07-25T04:50:30.881Z,65.58
2022-07-25T04:51:31.557Z,63.97
2022-07-25T04:52:31.037Z,64.61
2022-07-25T04:53:31.508Z,65.42
2022-07-25T04:54:30.789Z,65.26
2022-07-25T04:55:30.771Z,63.49
2022-07-25T04:56:30.805Z,63.49
2022-07-25T04:57:30.764Z,63.97
2022-07-25T04:58:30.774Z,63.33
2022-07-25T04:59:30.731Z,63.16
2022-07-25T05:00:30.771Z,64.61
2022-07-25T05:01:30.775Z,64.29
2022-07-25T05:02:30.762Z,62.04
2022-07-25T05:03:30.709Z,63.33
2022-07-25T05:04:30.685Z,62.04
2022-07-25T05:05:30.742Z,63.97
2022-07-25T05:06:30.692Z,63.33
2022-07-25T05:07:30.683Z,63.81
2022-07-25T05:08:30.650Z,61.39
2022-07-25T05:09:30.621Z,62.20
2022-07-25T05:10:30.642Z,63.65
2022-07-25T05:11:30.633Z,63.97
2022-07-25T05:12:30.571Z,61.87
2022-07-25T05:13:30.590Z,62.20
2022-07-25T05:14:30.595Z,62.84
2022-07-25T05:15:30.572Z,61.55
2022-07-25T05:16:30.604Z,63.49
2022-07-25T05:17:30.552Z,63.00
2022-07-25T05:18:30.531Z,63.65
2022-07-25T05:19:30.503Z,62.20
2022-07-25T05:20:30.482Z,62.20
2022-07-25T05:21:30.499Z,62.52
2022-07-25T05:22:30.493Z,61.87
2022-07-25T05:23:30.460Z,61.39
2022-07-25T05:24:30.458Z,62.20
2022-07-25T05:25:30.435Z,62.84
2022-07-25T05:26:30.412Z,62.84
2022-07-25T05:27:30.407Z,60.91
2022-07-25T05:28:30.426Z,59.14
2022-07-25T05:29:30.396Z,63.33
2022-07-25T05:30:30.368Z,63.00
2022-07-25T05:31:30.464Z,62.52
2022-07-25T05:32:30.348Z,63.49
2022-07-25T05:33:30.345Z,62.68
2022-07-25T05:34:30.369Z,61.55
2022-07-25T05:35:30.918Z,62.52
2022-07-25T05:36:30.307Z,60.42
2022-07-25T05:37:30.317Z,60.75
2022-07-25T05:38:30.301Z,60.91
2022-07-25T05:39:30.300Z,61.55
2022-07-25T05:40:30.562Z,58.81
2022-07-25T05:41:30.243Z,59.94
2022-07-25T05:42:30.260Z,61.55
2022-07-25T05:43:30.218Z,60.26
2022-07-25T05:44:30.979Z,60.10
2022-07-25T05:45:30.223Z,60.75
2022-07-25T05:46:30.198Z,59.14
2022-07-25T05:47:30.222Z,60.75
2022-07-25T05:48:30.226Z,60.26
2022-07-25T05:49:30.166Z,59.14
2022-07-25T05:50:30.138Z,57.20
2022-07-25T05:51:30.120Z,57.04
2022-07-25T05:52:30.112Z,58.49
2022-07-25T05:53:30.129Z,58.49
2022-07-25T05:54:30.101Z,58.49
2022-07-25T05:55:30.097Z,55.75
2022-07-25T05:56:30.083Z,57.69
2022-07-25T05:57:30.073Z,56.24
2022-07-25T05:58:30.301Z,59.46
2022-07-25T05:59:30.541Z,56.07
2022-07-25T06:00:30.064Z,57.52
2022-07-25T06:01:30.069Z,59.46
2022-07-25T06:02:30.142Z,55.59
2022-07-25T06:03:30.025Z,54.95
2022-07-25T06:04:29.992Z,59.46
2022-07-25T06:05:29.970Z,59.46
2022-07-25T06:06:29.976Z,58.81
2022-07-25T06:07:29.972Z,60.26
2022-07-25T06:08:29.943Z,58.97
2022-07-25T06:09:29.920Z,59.30
2022-07-25T06:10:29.924Z,58.49
2022-07-25T06:11:30.660Z,59.46
2022-07-25T06:12:29.899Z,59.78
2022-07-25T07:01:38.394Z,56.72
2022-07-25T07:02:38.489Z,56.72
2022-07-25T07:03:38.498Z,57.36
2022-07-25T07:04:39.416Z,55.59
2022-07-25T07:05:39.393Z,57.04
2022-07-25T07:06:39.414Z,56.56
2022-07-25T07:07:40.687Z,56.88
2022-07-25T07:08:39.432Z,56.56
2022-07-25T07:09:39.368Z,58.17
2022-07-25T07:10:39.345Z,57.69
2022-07-25T07:11:39.359Z,55.11
2022-07-25T07:12:39.330Z,54.30
2022-07-25T07:13:39.374Z,57.20
2022-07-25T07:14:39.345Z,57.69
2022-07-25T07:15:39.309Z,57.36
2022-07-25T07:16:39.399Z,58.65
2022-07-25T07:17:39.274Z,59.94
2022-07-25T07:18:39.296Z,54.95
2022-07-25T07:19:39.315Z,53.98
2022-07-25T07:20:39.542Z,58.65
2022-07-25T07:21:39.288Z,56.40
2022-07-25T07:22:39.216Z,58.49
2022-07-25T07:23:39.276Z,56.24
2022-07-25T07:24:43.921Z,56.56
2022-07-25T07:25:39.200Z,57.52
2022-07-25T07:26:39.241Z,55.75
2022-07-25T07:27:39.186Z,55.91
2022-07-25T07:28:39.180Z,56.88
2022-07-25T07:29:39.175Z,56.72
2022-07-25T07:31:13.607Z,56.40
2022-07-25T07:31:39.168Z,55.75
2022-07-25T07:32:39.131Z,55.43
2022-07-25T07:33:39.101Z,54.79
2022-07-25T07:34:39.133Z,58.33
2022-07-25T07:35:39.133Z,56.24
2022-07-25T07:36:39.082Z,57.69
2022-07-25T07:37:43.430Z,57.36
2022-07-25T07:38:39.089Z,55.27
2022-07-25T07:39:39.097Z,54.95
2022-07-25T07:40:39.024Z,56.88
2022-07-25T07:41:39.066Z,56.56
2022-07-25T07:42:38.989Z,56.72
2022-07-25T07:43:38.993Z,55.91
2022-07-25T07:44:39.048Z,57.20
2022-07-25T07:45:39.446Z,59.14
2022-07-25T07:46:39.055Z,58.01
2022-07-25T07:47:38.984Z,55.11
2022-07-25T07:48:39.012Z,56.07
2022-07-25T07:49:38.986Z,58.01
2022-07-25T07:50:38.970Z,56.40
2022-07-25T07:51:38.979Z,57.20
2022-07-25T07:52:38.888Z,58.33
2022-07-25T07:53:38.973Z,57.20
2022-07-25T07:54:38.873Z,56.88
2022-07-25T07:55:38.879Z,57.36
2022-07-25T07:56:39.199Z,56.88
2022-07-25T07:57:39.140Z,57.04
2022-07-25T07:58:39.159Z,59.30
2022-07-25T07:59:38.888Z,58.49
2022-07-25T08:00:39.310Z,54.79
2022-07-25T08:01:38.839Z,56.40
2022-07-25T08:02:38.917Z,58.65
2022-07-25T08:03:38.804Z,58.01
2022-07-25T08:04:38.781Z,56.40
2022-07-25T08:05:38.859Z,57.36
2022-07-25T08:06:38.778Z,58.17
2022-07-25T08:07:38.877Z,58.01
2022-07-25T08:08:38.787Z,57.36
2022-07-25T08:09:38.756Z,54.79
2022-07-25T08:10:38.911Z,57.52
2022-07-25T08:11:38.760Z,58.65
2022-07-25T08:12:38.737Z,57.20
2022-07-25T08:13:38.752Z,55.91
2022-07-25T08:14:38.730Z,59.30
2022-07-25T08:15:38.844Z,58.33
2022-07-25T08:16:38.854Z,58.33
2022-07-25T08:17:38.762Z,59.46
2022-07-25T08:18:38.914Z,57.04
2022-07-25T08:19:38.789Z,56.24
2022-07-25T08:20:39.070Z,58.49
2022-07-25T08:21:39.138Z,58.97
2022-07-25T08:22:38.661Z,56.07
2022-07-25T08:23:38.660Z,58.49
2022-07-25T08:24:38.677Z,58.65
2022-07-25T08:25:38.628Z,59.46
2022-07-25T08:26:38.612Z,57.85
2022-07-25T08:27:39.795Z,57.36
2022-07-25T10:36:39.189Z,58.33
2022-07-25T10:37:39.118Z,56.56
2022-07-25T10:38:39.125Z,56.40
2022-07-25T10:39:39.088Z,58.01
2022-07-25T10:40:39.288Z,56.72
2022-07-25T10:41:38.877Z,54.79
2022-07-25T10:42:38.892Z,55.75
2022-07-25T10:43:38.826Z,57.20
2022-07-25T10:44:38.859Z,56.24
2022-07-25T10:45:39.114Z,58.49
2022-07-25T10:46:38.908Z,58.01
2022-07-25T10:47:38.903Z,57.85
2022-07-25T10:48:38.894Z,57.69
2022-07-25T10:49:50.167Z,56.07
2022-07-25T10:50:54.789Z,56.72
2022-07-25T10:51:42.026Z,57.85
2022-07-25T10:52:39.859Z,56.56
2022-07-25T10:53:40.457Z,58.17
2022-07-25T10:54:39.810Z,58.33
2022-07-25T10:55:39.880Z,58.81
2022-07-25T10:56:39.966Z,59.14
2022-07-25T10:57:54.998Z,57.52
2022-07-25T10:58:40.985Z,57.69
2022-07-25T10:59:39.941Z,58.01
2022-07-25T11:00:39.896Z,59.46
2022-07-25T11:01:40.079Z,58.65
2022-07-25T11:02:40.179Z,59.62
2022-07-25T11:36:16.185Z,59.62
2022-07-25T11:37:15.386Z,59.46
2022-07-25T11:38:15.104Z,61.23
2022-07-25T11:39:18.765Z,58.49
2022-07-25T11:40:15.108Z,58.01
2022-07-25T11:41:15.135Z,57.85
2022-07-25T11:42:15.041Z,57.36
2022-07-25T11:43:15.078Z,60.26
2022-07-25T11:44:15.092Z,58.17
2022-07-25T11:45:15.091Z,58.01
2022-07-25T11:46:15.056Z,60.10
2022-07-25T11:47:15.042Z,58.81
2022-07-25T11:48:15.143Z,58.97
2022-07-25T11:49:15.177Z,57.36
2022-07-25T11:50:14.997Z,56.88
2022-07-25T11:51:18.292Z,59.46
2022-07-25T11:52:15.082Z,59.62
2022-07-25T11:53:16.075Z,59.46
2022-07-25T11:54:15.274Z,57.69
2022-07-25T11:55:14.920Z,57.69
2022-07-25T11:56:40.745Z,58.97
2022-07-25T11:57:17.476Z,59.94
2022-07-25T11:58:14.885Z,58.17
2022-07-25T11:59:14.886Z,58.17
2022-07-25T12:00:14.887Z,58.49
2022-07-25T12:01:14.834Z,57.52
2022-07-25T12:02:19.447Z,58.17
2022-07-25T12:03:19.362Z,57.69
2022-07-25T12:04:14.915Z,57.04
2022-07-25T12:05:14.849Z,57.36
2022-07-25T12:06:14.837Z,55.75
2022-07-25T12:07:14.816Z,56.88
2022-07-25T12:08:14.751Z,55.91
2022-07-25T12:09:18.556Z,58.65
2022-07-25T12:10:14.771Z,58.01
2022-07-25T12:11:14.755Z,57.52
2022-07-25T12:12:14.714Z,59.14
2022-07-25T12:13:14.905Z,58.97
2022-07-25T12:14:14.686Z,60.42
2022-07-25T12:15:14.638Z,58.81
2022-07-25T12:16:14.637Z,57.20
2022-07-25T12:17:14.640Z,59.14
2022-07-25T12:18:14.558Z,60.75
2022-07-25T12:19:14.553Z,59.46
2022-07-25T12:20:14.623Z,58.65
2022-07-25T12:21:14.639Z,58.97
2022-07-25T12:22:14.550Z,58.49
2022-07-25T12:23:14.574Z,56.24
2022-07-25T12:24:14.495Z,58.97
2022-07-25T12:25:14.556Z,59.46
2022-07-25T12:26:14.482Z,56.88
2022-07-25T12:27:14.503Z,57.69
2022-07-25T12:28:14.477Z,58.49
2022-07-25T12:29:14.439Z,59.62
2022-07-25T12:30:14.440Z,56.72
2022-07-25T12:31:14.568Z,59.62
2022-07-25T12:32:14.429Z,58.97
2022-07-25T12:33:14.440Z,59.30
2022-07-25T12:34:14.447Z,59.14
2022-07-25T12:35:14.375Z,57.04
2022-07-25T12:36:14.382Z,58.33
2022-07-25T12:37:14.397Z,58.01
2022-07-25T12:38:14.860Z,57.04
2022-07-25T12:39:14.479Z,59.14
2022-07-25T12:40:14.392Z,58.17
2022-07-25T12:41:17.825Z,58.65
2022-07-25T12:42:14.439Z,58.81
2022-07-25T12:43:14.429Z,60.10
2022-07-25T12:44:14.295Z,60.26
2022-07-25T12:45:14.305Z,59.94
2022-07-25T12:46:14.516Z,58.81
2022-07-25T12:47:14.281Z,59.78
2022-07-25T12:48:14.272Z,58.97
2022-07-25T12:49:14.561Z,58.65
2022-07-25T12:50:14.230Z,58.49
2022-07-25T12:51:14.244Z,56.56
2022-07-25T12:52:14.192Z,56.56
2022-07-25T12:53:14.163Z,56.56
2022-07-25T12:54:18.581Z,56.40
2022-07-25T12:55:14.158Z,58.49
2022-07-25T12:56:14.126Z,57.04
2022-07-25T12:57:14.230Z,59.62
2022-07-25T12:58:14.162Z,58.49
2022-07-25T12:59:14.108Z,55.75
2022-07-25T13:00:14.090Z,57.85
2022-07-25T13:01:14.190Z,58.01
2022-07-25T13:02:14.185Z,59.62
2022-07-25T13:03:14.066Z,58.01
2022-07-25T13:04:14.055Z,62.04
2022-07-25T13:05:14.056Z,59.46
2022-07-25T13:06:14.020Z,59.62
2022-07-25T13:07:14.073Z,59.14
2022-07-25T13:08:15.167Z,56.88
2022-07-25T13:09:14.864Z,59.30
2022-07-25T13:10:13.979Z,58.81
2022-07-25T13:11:14.020Z,58.17
2022-07-25T13:12:16.599Z,59.78
2022-07-25T13:13:14.033Z,58.97
2022-07-25T13:14:13.921Z,58.33
2022-07-25T13:15:13.913Z,58.49
2022-07-25T13:16:13.944Z,58.65
2022-07-25T13:17:13.891Z,59.46
2022-07-25T13:18:14.325Z,59.46
2022-07-25T13:19:13.908Z,59.14
2022-07-25T13:20:13.913Z,59.46
2022-07-25T13:21:13.869Z,59.62
2022-07-25T13:22:13.854Z,58.17
2022-07-25T13:23:18.785Z,61.71
2022-07-25T13:24:13.858Z,59.78
2022-07-25T13:25:14.061Z,60.42
2022-07-25T13:26:13.818Z,59.14
2022-07-25T13:27:14.304Z,61.07
2022-07-25T13:28:13.800Z,58.97
2022-07-25T13:29:13.860Z,59.14
2022-07-25T13:30:13.794Z,59.94
2022-07-25T13:31:13.802Z,58.49
2022-07-25T13:32:13.846Z,59.14
2022-07-25T13:33:13.741Z,57.20
2022-07-25T13:34:13.707Z,58.17
2022-07-25T13:35:17.707Z,57.85
2022-07-25T13:36:14.682Z,60.26
2022-07-25T13:37:13.732Z,61.39
2022-07-25T13:38:13.723Z,58.65
2022-07-25T13:39:13.846Z,58.65
2022-07-25T13:40:13.727Z,56.88
2022-07-25T13:41:13.627Z,58.17
2022-07-25T13:42:13.960Z,59.78
2022-07-25T13:43:13.767Z,57.20
2022-07-25T13:44:13.616Z,59.62
2022-07-25T13:45:13.579Z,60.42
2022-07-25T13:46:13.785Z,61.55
2022-07-25T13:47:19.842Z,60.75
2022-07-25T13:48:31.547Z,60.75
2022-07-25T13:49:15.656Z,60.59
2022-07-25T13:50:13.562Z,60.26
2022-07-25T13:51:13.542Z,59.14
2022-07-25T13:52:13.525Z,58.49
2022-07-25T13:53:13.568Z,59.94
2022-07-25T13:54:13.499Z,59.78
2022-07-25T13:55:13.480Z,59.46
2022-07-25T13:56:13.513Z,58.33
2022-07-25T13:57:13.470Z,58.65
2022-07-25T13:58:13.499Z,60.10
2022-07-25T13:59:20.493Z,59.14
2022-07-25T14:00:13.437Z,58.97
2022-07-25T14:01:13.464Z,58.17
2022-07-25T14:02:13.427Z,57.69
2022-07-25T14:03:13.430Z,58.49
2022-07-25T14:04:13.403Z,60.42
2022-07-25T14:05:13.375Z,58.33
2022-07-25T14:06:14.362Z,57.36
2022-07-25T14:07:13.359Z,57.52
2022-07-25T14:08:13.349Z,59.14
2022-07-25T14:09:13.337Z,58.81
2022-07-25T14:10:13.327Z,58.49
2022-07-25T14:11:13.333Z,58.65
2022-07-25T14:12:13.301Z,57.52
2022-07-25T14:13:13.910Z,57.52
2022-07-25T14:14:13.261Z,58.49
2022-07-25T14:15:13.288Z,58.17
2022-07-25T14:16:13.270Z,57.52
2022-07-25T14:17:13.385Z,59.14
2022-07-25T14:18:13.259Z,57.20
2022-07-25T14:19:13.268Z,55.27
2022-07-25T14:20:13.208Z,59.14
2022-07-25T14:21:13.207Z,58.17
2022-07-25T14:22:13.752Z,58.01
2022-07-25T14:23:13.224Z,59.94
2022-07-25T14:24:13.170Z,58.17
2022-07-25T14:25:13.197Z,57.69
2022-07-25T14:26:13.177Z,56.40
2022-07-25T14:27:13.154Z,57.52
2022-07-25T14:28:13.153Z,58.17
2022-07-25T14:29:13.151Z,57.36
2022-07-25T14:30:13.110Z,59.62
2022-07-25T14:31:28.186Z,56.40
2022-07-25T14:32:14.147Z,58.97
2022-07-25T14:33:13.106Z,56.07
2022-07-25T14:34:13.085Z,59.94
2022-07-25T14:35:13.248Z,61.71
2022-07-25T14:36:13.076Z,60.75
2022-07-25T14:37:13.119Z,58.81
2022-07-25T14:38:13.034Z,59.30
2022-07-25T14:39:13.185Z,59.78
2022-07-25T14:40:14.021Z,58.65
2022-07-25T14:41:13.446Z,60.91
2022-07-25T14:42:13.312Z,58.49
2022-07-25T14:43:13.017Z,59.14
2022-07-25T14:44:13.039Z,58.33
2022-07-25T14:45:12.990Z,58.33
2022-07-25T14:46:12.978Z,57.69
2022-07-25T14:47:13.051Z,58.17
2022-07-25T14:48:12.933Z,60.26
2022-07-25T14:49:12.948Z,59.94
2022-07-25T14:50:12.897Z,59.94
2022-07-25T14:51:12.878Z,58.97
2022-07-25T14:52:12.883Z,59.14
2022-07-25T14:53:12.864Z,59.30
2022-07-25T14:54:12.919Z,59.62
2022-07-25T14:55:13.141Z,59.78
2022-07-25T14:56:12.845Z,59.14
2022-07-25T14:57:12.846Z,59.46
2022-07-25T14:58:12.823Z,60.10
2022-07-25T14:59:12.817Z,58.49
2022-07-25T15:00:12.790Z,59.14
2022-07-25T15:01:12.827Z,60.10
2022-07-25T15:02:12.760Z,58.01
2022-07-25T15:03:12.746Z,59.14
2022-07-25T15:04:12.801Z,58.17
2022-07-25T15:05:12.790Z,57.69
2022-07-25T15:06:12.736Z,59.14
2022-07-25T15:07:12.899Z,59.78
2022-07-25T15:08:12.706Z,58.17
2022-07-25T15:09:12.704Z,59.30
2022-07-25T15:10:12.742Z,61.71
2022-07-25T15:11:13.656Z,59.14
2022-07-25T15:12:16.456Z,58.65
2022-07-25T15:13:40.876Z,55.11
2022-07-25T15:14:14.650Z,58.17
2022-07-25T15:15:12.657Z,56.72
2022-07-25T15:16:12.728Z,56.40
2022-07-25T15:17:13.386Z,57.69
2022-07-25T15:18:14.089Z,59.14
2022-07-25T15:19:16.588Z,60.10
2022-07-25T15:20:13.591Z,59.62
2022-07-25T15:21:12.569Z,58.65
2022-07-25T15:22:12.570Z,60.26
2022-07-25T15:23:12.549Z,60.59
2022-07-25T15:24:12.529Z,56.24
2022-07-25T15:25:58.395Z,57.85
2022-07-25T15:26:14.510Z,56.72
2022-07-25T15:27:12.515Z,55.91
2022-07-25T15:28:12.490Z,59.62
2022-07-25T15:29:12.536Z,59.46
2022-07-25T15:30:12.489Z,59.46
2022-07-25T15:31:12.522Z,58.97
2022-07-25T15:32:12.463Z,59.14
2022-07-25T15:33:12.423Z,59.62
2022-07-25T15:34:12.431Z,58.49
2022-07-25T15:35:12.439Z,57.04
2022-07-25T15:36:12.384Z,59.46
2022-07-25T15:37:12.365Z,59.30
2022-07-25T15:38:12.444Z,57.69
2022-07-25T15:39:12.362Z,57.69
2022-07-25T15:40:12.408Z,56.72
2022-07-25T15:41:12.361Z,56.56
2022-07-25T15:42:12.334Z,59.94
2022-07-25T15:43:12.312Z,58.65
2022-07-25T15:44:12.317Z,58.65
2022-07-25T15:46:12.372Z,58.33
2022-07-25T15:47:12.333Z,58.33
2022-07-25T15:48:12.574Z,57.52
2022-07-25T15:49:12.586Z,58.49
2022-07-25T15:50:12.238Z,56.07
2022-07-25T15:51:12.298Z,55.75
2022-07-25T15:52:12.237Z,59.46
2022-07-25T15:53:12.252Z,58.49
2022-07-25T15:54:12.196Z,57.52
2022-07-25T15:55:12.200Z,58.33
2022-07-25T15:56:12.232Z,58.17
2022-07-25T15:57:12.165Z,57.20
2022-07-25T15:58:12.159Z,59.94
2022-07-25T15:59:12.141Z,58.17
2022-07-25T16:00:12.184Z,57.04
2022-07-25T16:01:12.191Z,58.97
2022-07-25T16:02:12.113Z,56.72
2022-07-25T16:03:12.158Z,59.30
2022-07-25T16:04:13.188Z,56.56
2022-07-25T16:05:12.102Z,56.24
2022-07-25T16:06:16.891Z,59.14
2022-07-25T16:07:12.070Z,57.52
2022-07-25T16:08:12.081Z,58.33
2022-07-25T16:09:12.042Z,56.40
2022-07-25T16:10:12.066Z,55.11
2022-07-25T16:11:12.052Z,56.24
2022-07-25T16:12:12.777Z,55.43
2022-07-25T16:13:12.053Z,56.88
2022-07-25T16:14:11.975Z,60.10
2022-07-25T16:15:11.999Z,59.46
2022-07-25T16:16:12.026Z,58.17
2022-07-25T16:17:11.975Z,58.33
2022-07-25T16:18:11.959Z,59.14
2022-07-25T16:19:11.962Z,58.81
2022-07-25T16:20:11.917Z,59.14
2022-07-25T16:21:12.653Z,56.24
2022-07-25T16:22:11.898Z,58.01
2022-07-25T16:23:11.924Z,58.17
2022-07-25T16:24:11.906Z,59.62
2022-07-25T16:25:11.866Z,57.52
2022-07-25T16:26:11.904Z,59.30
2022-07-25T16:27:12.031Z,57.36
2022-07-25T16:28:11.856Z,55.91
2022-07-25T16:29:12.456Z,56.07
2022-07-25T16:30:11.829Z,58.97
2022-07-25T16:31:11.861Z,58.65
2022-07-25T16:32:11.827Z,58.17
2022-07-25T16:33:11.790Z,65.10
2022-07-25T16:34:11.758Z,64.78
2022-07-25T16:35:11.812Z,64.94
2022-07-25T16:36:11.753Z,59.14
2022-07-25T16:37:11.754Z,59.14
2022-07-25T16:38:11.787Z,61.07
2022-07-25T16:39:11.723Z,58.33
2022-07-25T16:40:11.690Z,57.85
2022-07-25T16:41:11.699Z,59.30
2022-07-25T16:42:11.695Z,54.95
2022-07-25T16:43:11.667Z,52.05
2022-07-25T16:44:11.676Z,55.27
2022-07-25T16:45:11.648Z,54.14
2022-07-25T16:46:11.662Z,56.56
2022-07-25T16:47:11.663Z,58.65
2022-07-25T16:48:11.621Z,59.30
2022-07-25T16:49:11.887Z,60.26
2022-07-25T16:50:11.631Z,64.61
2022-07-25T16:51:11.686Z,64.61
2022-07-25T16:52:11.598Z,63.00
2022-07-25T16:53:11.603Z,65.10
2022-07-25T16:54:11.591Z,63.16
2022-07-25T16:55:11.539Z,67.19
2022-07-25T16:56:11.524Z,63.00
2022-07-25T16:57:11.564Z,61.23
2022-07-25T16:58:11.504Z,59.14
2022-07-25T16:59:11.487Z,58.65
2022-07-25T17:00:11.480Z,57.52
2022-07-25T17:01:11.482Z,55.91
2022-07-25T17:02:11.670Z,53.98
2022-07-25T17:03:12.449Z,53.82
2022-07-25T17:04:11.416Z,54.79
2022-07-25T17:05:11.472Z,55.43
2022-07-25T17:06:11.401Z,54.79
2022-07-25T17:07:11.406Z,55.75
2022-07-25T17:08:11.383Z,55.27
2022-07-25T17:09:11.360Z,56.24
2022-07-25T17:10:11.353Z,56.40
2022-07-25T17:11:11.338Z,57.04
2022-07-25T17:12:11.324Z,56.40
2022-07-25T17:13:11.339Z,56.56
2022-07-25T17:14:11.302Z,54.14
2022-07-25T17:15:11.287Z,56.56
2022-07-25T17:16:11.301Z,55.11
2022-07-25T17:17:11.263Z,56.56
2022-07-25T17:18:11.278Z,55.11
2022-07-25T17:19:11.528Z,54.95
2022-07-25T17:20:11.236Z,54.95
2022-07-25T17:21:11.220Z,54.62
2022-07-25T17:22:11.223Z,58.33
2022-07-25T17:23:11.250Z,56.56
2022-07-25T17:24:11.197Z,57.52
2022-07-25T17:25:11.166Z,58.33
2022-07-25T17:26:11.178Z,54.95
2022-07-25T17:27:11.169Z,55.75
2022-07-25T17:28:11.183Z,53.66
2022-07-25T17:29:11.131Z,55.27
2022-07-25T17:30:11.126Z,53.98
2022-07-25T17:31:11.171Z,55.75
2022-07-25T17:32:11.084Z,56.56
2022-07-25T17:33:11.079Z,54.62
2022-07-25T17:34:11.096Z,54.14
2022-07-25T17:35:16.197Z,55.75
2022-07-25T17:36:46.359Z,55.91
2022-07-25T17:37:12.299Z,56.07
2022-07-25T17:38:11.095Z,55.11
2022-07-25T17:39:11.306Z,57.69
2022-07-25T17:40:11.030Z,53.33
2022-07-25T17:41:11.061Z,54.79
2022-07-25T17:42:11.044Z,55.91
2022-07-25T17:43:11.041Z,53.50
2022-07-25T17:44:12.191Z,55.59
2022-07-25T17:47:50.463Z,56.07
2022-07-25T17:48:50.439Z,51.56
2022-07-25T17:49:50.348Z,53.33
2022-07-25T17:50:50.325Z,55.43
2022-07-25T17:51:50.345Z,54.62
2022-07-25T17:52:50.312Z,56.24
2022-07-25T17:53:50.343Z,54.95
2022-07-25T17:54:50.305Z,53.98
2022-07-25T17:55:50.282Z,55.59
2022-07-25T17:56:50.250Z,55.91
2022-07-25T17:57:50.250Z,55.91
2022-07-25T17:58:50.248Z,56.07
2022-07-25T17:59:50.226Z,57.36
2022-07-25T18:00:50.207Z,57.52
2022-07-25T18:01:50.268Z,55.27
2022-07-25T18:02:50.224Z,56.24
2022-07-25T18:03:50.205Z,54.79
2022-07-25T18:04:50.186Z,53.33
2022-07-25T18:05:50.149Z,55.11
2022-07-25T18:06:50.319Z,56.88
2022-07-25T18:07:50.131Z,55.27
2022-07-25T18:08:50.122Z,55.11
2022-07-25T18:09:50.145Z,54.30
2022-07-25T18:10:50.105Z,55.27
2022-07-25T18:11:50.105Z,54.95
2022-07-25T18:12:50.058Z,55.75
2022-07-25T18:13:51.259Z,57.04